sensor_id;sensor_type;location;lat;lon;timestamp;temperature;humidity
13328;DHT22;6733;51.044;3.746;2024-03-23T00:53:58;9.50;83.80
13328;DHT22;6733;51.044;3.746;2024-03-23T00:56:25;9.50;84.00
13328;DHT22;6733;51.044;3.746;2024-03-23T00:58:51;9.50;84.20
13328;DHT22;6733;51.044;3.746;2024-03-23T01:01:17;9.50;84.00
13328;DHT22;6733;51.044;3.746;2024-03-23T01:03:43;9.60;84.10
13328;DHT22;6733;51.044;3.746;2024-03-23T01:06:09;9.60;83.80
13328;DHT22;6733;51.044;3.746;2024-03-23T01:08:35;9.70;83.50
13328;DHT22;6733;51.044;3.746;2024-03-23T01:11:02;9.70;83.60
13328;DHT22;6733;51.044;3.746;2024-03-23T01:13:29;9.70;83.30
13328;DHT22;6733;51.044;3.746;2024-03-23T01:15:56;9.70;83.30
13328;DHT22;6733;51.044;3.746;2024-03-23T01:18:23;9.70;83.00
13328;DHT22;6733;51.044;3.746;2024-03-23T01:20:49;9.70;82.80
13328;DHT22;6733;51.044;3.746;2024-03-23T01:23:16;9.70;82.70
13328;DHT22;6733;51.044;3.746;2024-03-23T01:25:42;9.70;82.50
13328;DHT22;6733;51.044;3.746;2024-03-23T01:28:08;9.70;82.40
13328;DHT22;6733;51.044;3.746;2024-03-23T01:30:35;9.70;82.00
13328;DHT22;6733;51.044;3.746;2024-03-23T01:33:02;9.70;81.90
13328;DHT22;6733;51.044;3.746;2024-03-23T01:35:31;9.70;81.70
13328;DHT22;6733;51.044;3.746;2024-03-23T01:37:57;9.60;81.70
13328;DHT22;6733;51.044;3.746;2024-03-23T01:40:23;9.60;81.70
13328;DHT22;6733;51.044;3.746;2024-03-23T01:43:03;9.50;81.70
13328;DHT22;6733;51.044;3.746;2024-03-23T01:45:33;9.40;81.70
13328;DHT22;6733;51.044;3.746;2024-03-23T01:47:59;9.40;81.80
13328;DHT22;6733;51.044;3.746;2024-03-23T01:50:27;9.30;81.80
13328;DHT22;6733;51.044;3.746;2024-03-23T01:52:53;9.30;81.80
13328;DHT22;6733;51.044;3.746;2024-03-23T01:55:20;9.30;81.80
13328;DHT22;6733;51.044;3.746;2024-03-23T01:57:46;9.20;81.80
13328;DHT22;6733;51.044;3.746;2024-03-23T02:00:13;9.20;81.80
13328;DHT22;6733;51.044;3.746;2024-03-23T02:02:43;9.20;81.70
13328;DHT22;6733;51.044;3.746;2024-03-23T02:05:13;9.20;81.70
13328;DHT22;6733;51.044;3.746;2024-03-23T02:07:40;9.20;81.60
13328;DHT22;6733;51.044;3.746;2024-03-23T02:10:07;9.20;81.30
13328;DHT22;6733;51.044;3.746;2024-03-23T02:12:36;9.20;81.00
13328;DHT22;6733;51.044;3.746;2024-03-23T02:15:03;9.30;80.90
13328;DHT22;6733;51.044;3.746;2024-03-23T02:17:34;9.30;80.50
13328;DHT22;6733;51.044;3.746;2024-03-23T02:20:01;9.30;80.10
13328;DHT22;6733;51.044;3.746;2024-03-23T02:22:37;9.30;79.90
13328;DHT22;6733;51.044;3.746;2024-03-23T02:25:07;9.30;79.20
13328;DHT22;6733;51.044;3.746;2024-03-23T02:27:33;9.40;78.70
13328;DHT22;6733;51.044;3.746;2024-03-23T02:30:01;9.40;77.90
13328;DHT22;6733;51.044;3.746;2024-03-23T02:32:52;9.40;77.30
13328;DHT22;6733;51.044;3.746;2024-03-23T02:35:45;9.40;77.00
13328;DHT22;6733;51.044;3.746;2024-03-23T02:38:36;9.50;76.50
13328;DHT22;6733;51.044;3.746;2024-03-23T02:41:27;9.50;76.00
13328;DHT22;6733;51.044;3.746;2024-03-23T02:44:18;9.50;75.20
13328;DHT22;6733;51.044;3.746;2024-03-23T02:47:09;9.50;75.10
13328;DHT22;6733;51.044;3.746;2024-03-23T02:49:59;9.60;74.50
13328;DHT22;6733;51.044;3.746;2024-03-23T02:52:51;9.60;73.90
13328;DHT22;6733;51.044;3.746;2024-03-23T02:55:42;9.60;73.50
13328;DHT22;6733;51.044;3.746;2024-03-23T02:58:32;9.60;73.40
13328;DHT22;6733;51.044;3.746;2024-03-23T03:00:59;9.60;72.50
13328;DHT22;6733;51.044;3.746;2024-03-23T03:03:25;9.60;72.10
13328;DHT22;6733;51.044;3.746;2024-03-23T03:05:57;9.50;72.10
13328;DHT22;6733;51.044;3.746;2024-03-23T03:08:24;9.50;72.00
13328;DHT22;6733;51.044;3.746;2024-03-23T03:10:50;9.50;72.00
13328;DHT22;6733;51.044;3.746;2024-03-23T03:13:17;9.40;72.00
13328;DHT22;6733;51.044;3.746;2024-03-23T03:15:43;9.40;72.10
13328;DHT22;6733;51.044;3.746;2024-03-23T03:18:10;9.30;72.40
13328;DHT22;6733;51.044;3.746;2024-03-23T03:20:39;9.40;72.60
13328;DHT22;6733;51.044;3.746;2024-03-23T03:23:06;9.40;72.80
13328;DHT22;6733;51.044;3.746;2024-03-23T03:25:33;9.30;72.40
13328;DHT22;6733;51.044;3.746;2024-03-23T03:27:59;9.30;72.10
13328;DHT22;6733;51.044;3.746;2024-03-23T03:30:25;9.30;72.00
13328;DHT22;6733;51.044;3.746;2024-03-23T03:32:54;9.30;72.10
13328;DHT22;6733;51.044;3.746;2024-03-23T03:35:21;9.20;72.40
13328;DHT22;6733;51.044;3.746;2024-03-23T03:37:47;9.20;72.40
13328;DHT22;6733;51.044;3.746;2024-03-23T03:40:13;9.30;72.20
13328;DHT22;6733;51.044;3.746;2024-03-23T03:42:41;9.20;72.00
13328;DHT22;6733;51.044;3.746;2024-03-23T03:45:07;9.20;71.90
13328;DHT22;6733;51.044;3.746;2024-03-23T03:47:33;9.10;72.00
13328;DHT22;6733;51.044;3.746;2024-03-23T03:50:00;9.10;72.20
13328;DHT22;6733;51.044;3.746;2024-03-23T03:52:26;9.10;72.20
13328;DHT22;6733;51.044;3.746;2024-03-23T03:55:01;9.00;72.20
13328;DHT22;6733;51.044;3.746;2024-03-23T03:57:28;9.00;72.40
13328;DHT22;6733;51.044;3.746;2024-03-23T03:59:54;9.00;72.60
13328;DHT22;6733;51.044;3.746;2024-03-23T04:02:21;9.00;72.30
13328;DHT22;6733;51.044;3.746;2024-03-23T04:04:47;9.00;72.20
13328;DHT22;6733;51.044;3.746;2024-03-23T04:07:13;9.00;72.00
13328;DHT22;6733;51.044;3.746;2024-03-23T04:09:39;9.00;72.10
13328;DHT22;6733;51.044;3.746;2024-03-23T04:12:06;8.90;72.10
13328;DHT22;6733;51.044;3.746;2024-03-23T04:14:32;8.90;71.90
13328;DHT22;6733;51.044;3.746;2024-03-23T04:16:59;8.90;72.00
13328;DHT22;6733;51.044;3.746;2024-03-23T04:19:25;8.90;72.10
13328;DHT22;6733;51.044;3.746;2024-03-23T04:21:51;8.90;72.20
13328;DHT22;6733;51.044;3.746;2024-03-23T04:24:17;9.00;72.10
13328;DHT22;6733;51.044;3.746;2024-03-23T04:26:47;8.90;72.20
13328;DHT22;6733;51.044;3.746;2024-03-23T04:29:13;8.90;72.20
13328;DHT22;6733;51.044;3.746;2024-03-23T04:31:39;8.90;72.00
13328;DHT22;6733;51.044;3.746;2024-03-23T04:34:05;8.90;72.00
13328;DHT22;6733;51.044;3.746;2024-03-23T04:36:31;8.80;72.10
13328;DHT22;6733;51.044;3.746;2024-03-23T04:38:59;8.80;72.30
13328;DHT22;6733;51.044;3.746;2024-03-23T04:41:26;8.90;72.50
13328;DHT22;6733;51.044;3.746;2024-03-23T04:43:52;8.80;72.70
13328;DHT22;6733;51.044;3.746;2024-03-23T04:46:19;8.80;72.70
13328;DHT22;6733;51.044;3.746;2024-03-23T04:48:46;8.80;72.60
13328;DHT22;6733;51.044;3.746;2024-03-23T04:51:22;8.80;72.80
13328;DHT22;6733;51.044;3.746;2024-03-23T04:53:49;8.70;73.00
13328;DHT22;6733;51.044;3.746;2024-03-23T04:56:16;8.70;73.20
13328;DHT22;6733;51.044;3.746;2024-03-23T04:58:43;8.70;73.50
13328;DHT22;6733;51.044;3.746;2024-03-23T05:01:10;8.70;73.50
13328;DHT22;6733;51.044;3.746;2024-03-23T05:03:37;8.70;73.80
13328;DHT22;6733;51.044;3.746;2024-03-23T05:06:03;8.70;74.00
13328;DHT22;6733;51.044;3.746;2024-03-23T05:08:30;8.80;74.10
13328;DHT22;6733;51.044;3.746;2024-03-23T05:10:56;8.80;74.00
13328;DHT22;6733;51.044;3.746;2024-03-23T05:13:22;8.80;74.20
13328;DHT22;6733;51.044;3.746;2024-03-23T05:15:55;8.80;74.20
13328;DHT22;6733;51.044;3.746;2024-03-23T05:18:21;8.80;74.50
13328;DHT22;6733;51.044;3.746;2024-03-23T05:20:48;8.80;74.50
13328;DHT22;6733;51.044;3.746;2024-03-23T05:23:14;8.80;74.70
13328;DHT22;6733;51.044;3.746;2024-03-23T05:25:41;8.90;74.70
13328;DHT22;6733;51.044;3.746;2024-03-23T05:28:07;8.90;74.60
13328;DHT22;6733;51.044;3.746;2024-03-23T05:30:33;8.80;74.60
13328;DHT22;6733;51.044;3.746;2024-03-23T05:32:59;8.90;74.40
13328;DHT22;6733;51.044;3.746;2024-03-23T05:35:25;8.90;74.40
13328;DHT22;6733;51.044;3.746;2024-03-23T05:37:52;8.80;74.40
13328;DHT22;6733;51.044;3.746;2024-03-23T05:40:18;8.90;74.50
13328;DHT22;6733;51.044;3.746;2024-03-23T05:42:44;8.90;74.50
13328;DHT22;6733;51.044;3.746;2024-03-23T05:45:10;8.90;74.30
13328;DHT22;6733;51.044;3.746;2024-03-23T05:47:37;8.90;74.30
13328;DHT22;6733;51.044;3.746;2024-03-23T05:50:04;8.80;74.20
13328;DHT22;6733;51.044;3.746;2024-03-23T05:52:30;8.70;74.30
13328;DHT22;6733;51.044;3.746;2024-03-23T05:54:56;8.70;74.50
13328;DHT22;6733;51.044;3.746;2024-03-23T05:57:22;8.80;74.70
13328;DHT22;6733;51.044;3.746;2024-03-23T05:59:48;8.80;74.50
13328;DHT22;6733;51.044;3.746;2024-03-23T06:02:14;8.80;74.50
13328;DHT22;6733;51.044;3.746;2024-03-23T06:04:41;8.80;74.60
13328;DHT22;6733;51.044;3.746;2024-03-23T06:07:07;8.90;74.50
13328;DHT22;6733;51.044;3.746;2024-03-23T06:09:40;9.00;74.50
13328;DHT22;6733;51.044;3.746;2024-03-23T06:12:07;9.00;74.40
13328;DHT22;6733;51.044;3.746;2024-03-23T06:14:34;8.90;74.50
13328;DHT22;6733;51.044;3.746;2024-03-23T06:17:00;8.90;74.70
13328;DHT22;6733;51.044;3.746;2024-03-23T06:19:27;8.80;75.10
13328;DHT22;6733;51.044;3.746;2024-03-23T06:21:54;8.60;75.80
13328;DHT22;6733;51.044;3.746;2024-03-23T06:24:23;8.40;76.60
13328;DHT22;6733;51.044;3.746;2024-03-23T06:26:50;8.30;77.00
13328;DHT22;6733;51.044;3.746;2024-03-23T06:29:16;8.30;77.10
13328;DHT22;6733;51.044;3.746;2024-03-23T06:31:43;8.30;77.10
13328;DHT22;6733;51.044;3.746;2024-03-23T06:34:09;8.30;77.00
13328;DHT22;6733;51.044;3.746;2024-03-23T06:36:35;8.20;76.70
13328;DHT22;6733;51.044;3.746;2024-03-23T06:39:04;8.30;76.40
13328;DHT22;6733;51.044;3.746;2024-03-23T06:41:31;8.20;75.80
13328;DHT22;6733;51.044;3.746;2024-03-23T06:43:57;8.10;75.60
13328;DHT22;6733;51.044;3.746;2024-03-23T06:46:23;8.00;75.70
13328;DHT22;6733;51.044;3.746;2024-03-23T06:48:49;8.00;75.90
13328;DHT22;6733;51.044;3.746;2024-03-23T06:51:15;7.90;76.10
13328;DHT22;6733;51.044;3.746;2024-03-23T06:53:41;7.90;76.50
13328;DHT22;6733;51.044;3.746;2024-03-23T06:56:08;8.00;76.60
13328;DHT22;6733;51.044;3.746;2024-03-23T06:58:34;8.00;76.70
13328;DHT22;6733;51.044;3.746;2024-03-23T07:01:00;8.00;76.80
13328;DHT22;6733;51.044;3.746;2024-03-23T07:03:26;7.90;76.90
13328;DHT22;6733;51.044;3.746;2024-03-23T07:05:53;7.90;77.30
13328;DHT22;6733;51.044;3.746;2024-03-23T07:08:23;7.90;77.50
13328;DHT22;6733;51.044;3.746;2024-03-23T07:10:49;7.90;77.60
13328;DHT22;6733;51.044;3.746;2024-03-23T07:13:15;7.90;77.40
13328;DHT22;6733;51.044;3.746;2024-03-23T07:15:43;7.90;77.70
13328;DHT22;6733;51.044;3.746;2024-03-23T07:18:09;8.00;77.70
13328;DHT22;6733;51.044;3.746;2024-03-23T07:20:35;8.00;77.60
13328;DHT22;6733;51.044;3.746;2024-03-23T07:23:02;7.90;77.80
13328;DHT22;6733;51.044;3.746;2024-03-23T07:25:28;8.00;77.90
13328;DHT22;6733;51.044;3.746;2024-03-23T07:27:55;8.10;77.60
13328;DHT22;6733;51.044;3.746;2024-03-23T07:30:21;8.30;77.30
13328;DHT22;6733;51.044;3.746;2024-03-23T07:32:47;8.60;76.50
13328;DHT22;6733;51.044;3.746;2024-03-23T07:35:13;8.80;76.10
13328;DHT22;6733;51.044;3.746;2024-03-23T07:37:39;9.20;75.20
13328;DHT22;6733;51.044;3.746;2024-03-23T07:40:08;9.40;74.40
13328;DHT22;6733;51.044;3.746;2024-03-23T07:42:37;9.50;75.80
13328;DHT22;6733;51.044;3.746;2024-03-23T07:45:04;9.40;76.40
13328;DHT22;6733;51.044;3.746;2024-03-23T07:47:31;9.30;76.20
13328;DHT22;6733;51.044;3.746;2024-03-23T07:50:05;9.20;76.60
13328;DHT22;6733;51.044;3.746;2024-03-23T07:52:31;9.10;76.90
13328;DHT22;6733;51.044;3.746;2024-03-23T07:54:57;8.90;78.10
13328;DHT22;6733;51.044;3.746;2024-03-23T07:57:24;8.80;78.10
13328;DHT22;6733;51.044;3.746;2024-03-23T07:59:50;8.70;77.90
13328;DHT22;6733;51.044;3.746;2024-03-23T08:02:16;8.70;78.80
13328;DHT22;6733;51.044;3.746;2024-03-23T08:04:42;8.60;77.90
13328;DHT22;6733;51.044;3.746;2024-03-23T08:07:08;8.70;78.20
13328;DHT22;6733;51.044;3.746;2024-03-23T08:09:34;8.70;78.00
13328;DHT22;6733;51.044;3.746;2024-03-23T08:12:08;8.70;77.10
13328;DHT22;6733;51.044;3.746;2024-03-23T08:14:35;8.90;77.20
13328;DHT22;6733;51.044;3.746;2024-03-23T08:17:01;9.00;76.40
13328;DHT22;6733;51.044;3.746;2024-03-23T08:19:27;9.10;75.20
13328;DHT22;6733;51.044;3.746;2024-03-23T08:21:53;9.30;74.60
13328;DHT22;6733;51.044;3.746;2024-03-23T08:24:20;9.40;72.70
13328;DHT22;6733;51.044;3.746;2024-03-23T08:26:47;9.60;72.10
13328;DHT22;6733;51.044;3.746;2024-03-23T08:29:13;9.90;71.20
13328;DHT22;6733;51.044;3.746;2024-03-23T08:31:39;10.10;70.40
13328;DHT22;6733;51.044;3.746;2024-03-23T08:34:05;10.50;69.10
13328;DHT22;6733;51.044;3.746;2024-03-23T08:36:31;10.60;68.00
13328;DHT22;6733;51.044;3.746;2024-03-23T08:38:57;10.60;66.60
13328;DHT22;6733;51.044;3.746;2024-03-23T08:41:24;10.30;70.70
13328;DHT22;6733;51.044;3.746;2024-03-23T08:43:51;9.90;71.20
13328;DHT22;6733;51.044;3.746;2024-03-23T08:46:17;9.80;72.20
13328;DHT22;6733;51.044;3.746;2024-03-23T08:48:47;9.70;72.70
13328;DHT22;6733;51.044;3.746;2024-03-23T08:51:16;9.80;73.80
13328;DHT22;6733;51.044;3.746;2024-03-23T08:53:43;9.90;71.20
13328;DHT22;6733;51.044;3.746;2024-03-23T08:56:10;10.10;71.40
13328;DHT22;6733;51.044;3.746;2024-03-23T08:58:37;10.30;71.30
13328;DHT22;6733;51.044;3.746;2024-03-23T09:01:09;10.60;69.10
13328;DHT22;6733;51.044;3.746;2024-03-23T09:03:36;10.90;66.40
13328;DHT22;6733;51.044;3.746;2024-03-23T09:06:10;10.90;65.30
13328;DHT22;6733;51.044;3.746;2024-03-23T09:08:37;11.20;64.50
13328;DHT22;6733;51.044;3.746;2024-03-23T09:11:07;11.30;63.40
13328;DHT22;6733;51.044;3.746;2024-03-23T09:13:35;11.20;62.80
13328;DHT22;6733;51.044;3.746;2024-03-23T09:16:02;11.30;63.20
13328;DHT22;6733;51.044;3.746;2024-03-23T09:18:31;11.00;62.10
13328;DHT22;6733;51.044;3.746;2024-03-23T09:20:58;11.00;61.90
13328;DHT22;6733;51.044;3.746;2024-03-23T09:23:24;11.00;60.10
13328;DHT22;6733;51.044;3.746;2024-03-23T09:25:50;11.10;60.40
13328;DHT22;6733;51.044;3.746;2024-03-23T09:28:16;11.30;60.00
13328;DHT22;6733;51.044;3.746;2024-03-23T09:30:43;11.50;60.10
13328;DHT22;6733;51.044;3.746;2024-03-23T09:33:10;11.60;57.70
13328;DHT22;6733;51.044;3.746;2024-03-23T09:35:40;11.30;58.60
13328;DHT22;6733;51.044;3.746;2024-03-23T09:38:07;11.20;59.40
13328;DHT22;6733;51.044;3.746;2024-03-23T09:40:34;11.20;59.10
13328;DHT22;6733;51.044;3.746;2024-03-23T09:43:00;11.20;59.20
13328;DHT22;6733;51.044;3.746;2024-03-23T09:45:29;11.40;59.10
13328;DHT22;6733;51.044;3.746;2024-03-23T09:47:56;11.50;59.60
13328;DHT22;6733;51.044;3.746;2024-03-23T09:50:22;11.50;57.70
13328;DHT22;6733;51.044;3.746;2024-03-23T09:52:49;11.10;58.10
13328;DHT22;6733;51.044;3.746;2024-03-23T09:55:15;11.00;58.50
13328;DHT22;6733;51.044;3.746;2024-03-23T09:57:42;11.40;58.30
13328;DHT22;6733;51.044;3.746;2024-03-23T10:00:08;11.80;56.60
13328;DHT22;6733;51.044;3.746;2024-03-23T10:02:35;11.90;56.30
13328;DHT22;6733;51.044;3.746;2024-03-23T10:05:01;11.80;56.80
13328;DHT22;6733;51.044;3.746;2024-03-23T10:07:28;11.70;57.00
13328;DHT22;6733;51.044;3.746;2024-03-23T10:09:54;11.20;56.90
13328;DHT22;6733;51.044;3.746;2024-03-23T10:12:22;11.20;58.40
13328;DHT22;6733;51.044;3.746;2024-03-23T10:14:49;11.30;58.80
13328;DHT22;6733;51.044;3.746;2024-03-23T10:17:21;11.60;58.90
13328;DHT22;6733;51.044;3.746;2024-03-23T10:19:51;12.00;57.90
13328;DHT22;6733;51.044;3.746;2024-03-23T10:22:19;12.10;57.80
13328;DHT22;6733;51.044;3.746;2024-03-23T10:24:46;12.30;57.10
13328;DHT22;6733;51.044;3.746;2024-03-23T10:27:17;12.40;57.90
13328;DHT22;6733;51.044;3.746;2024-03-23T10:29:47;12.60;56.20
13328;DHT22;6733;51.044;3.746;2024-03-23T10:32:14;12.80;56.60
13328;DHT22;6733;51.044;3.746;2024-03-23T10:34:41;12.90;53.10
13328;DHT22;6733;51.044;3.746;2024-03-23T10:37:08;13.00;52.70
13328;DHT22;6733;51.044;3.746;2024-03-23T10:39:39;12.80;51.70
13328;DHT22;6733;51.044;3.746;2024-03-23T10:42:06;12.90;52.50
13328;DHT22;6733;51.044;3.746;2024-03-23T10:44:37;13.30;52.30
13328;DHT22;6733;51.044;3.746;2024-03-23T10:47:05;13.30;51.20
13328;DHT22;6733;51.044;3.746;2024-03-23T10:49:33;13.30;50.70
13328;DHT22;6733;51.044;3.746;2024-03-23T10:52:00;12.90;51.80
13328;DHT22;6733;51.044;3.746;2024-03-23T10:54:27;13.00;52.40
13328;DHT22;6733;51.044;3.746;2024-03-23T10:57:05;13.30;52.10
13328;DHT22;6733;51.044;3.746;2024-03-23T10:59:32;13.70;51.50
13328;DHT22;6733;51.044;3.746;2024-03-23T11:02:00;14.00;51.10
13328;DHT22;6733;51.044;3.746;2024-03-23T11:04:35;14.00;51.60
13328;DHT22;6733;51.044;3.746;2024-03-23T11:07:02;13.30;48.80
13328;DHT22;6733;51.044;3.746;2024-03-23T11:17:19;13.40;50.10
13328;DHT22;6733;51.044;3.746;2024-03-23T11:25:20;13.40;50.80
13328;DHT22;6733;51.044;3.746;2024-03-23T11:27:48;13.60;50.10
13328;DHT22;6733;51.044;3.746;2024-03-23T11:30:22;13.40;50.00
13328;DHT22;6733;51.044;3.746;2024-03-23T11:32:56;13.10;50.70
13328;DHT22;6733;51.044;3.746;2024-03-23T11:38:12;13.20;50.20
13328;DHT22;6733;51.044;3.746;2024-03-23T11:40:39;12.80;50.00
13328;DHT22;6733;51.044;3.746;2024-03-23T11:43:12;12.50;50.90
13328;DHT22;6733;51.044;3.746;2024-03-23T11:45:43;12.40;52.40
13328;DHT22;6733;51.044;3.746;2024-03-23T11:48:17;12.10;52.60
13328;DHT22;6733;51.044;3.746;2024-03-23T11:50:45;12.20;52.40
13328;DHT22;6733;51.044;3.746;2024-03-23T11:55:53;12.50;50.90
13328;DHT22;6733;51.044;3.746;2024-03-23T11:58:21;12.40;51.50
13328;DHT22;6733;51.044;3.746;2024-03-23T12:00:58;12.40;51.70
13328;DHT22;6733;51.044;3.746;2024-03-23T12:03:25;12.40;50.70
13328;DHT22;6733;51.044;3.746;2024-03-23T12:05:53;12.20;50.90
13328;DHT22;6733;51.044;3.746;2024-03-23T12:08:24;12.10;53.40
13328;DHT22;6733;51.044;3.746;2024-03-23T12:13:31;12.20;50.90
13328;DHT22;6733;51.044;3.746;2024-03-23T12:16:09;12.30;52.10
13328;DHT22;6733;51.044;3.746;2024-03-23T12:18:40;12.60;51.90
13328;DHT22;6733;51.044;3.746;2024-03-23T12:21:07;13.00;50.90
13328;DHT22;6733;51.044;3.746;2024-03-23T12:23:34;13.00;49.30
13328;DHT22;6733;51.044;3.746;2024-03-23T12:26:00;13.00;48.30
13328;DHT22;6733;51.044;3.746;2024-03-23T12:28:27;12.90;48.20
13328;DHT22;6733;51.044;3.746;2024-03-23T12:30:54;12.80;48.30
13328;DHT22;6733;51.044;3.746;2024-03-23T12:33:21;12.50;48.80
13328;DHT22;6733;51.044;3.746;2024-03-23T12:35:50;12.30;48.40
13328;DHT22;6733;51.044;3.746;2024-03-23T12:38:17;12.10;49.00
13328;DHT22;6733;51.044;3.746;2024-03-23T12:40:50;11.90;48.80
13328;DHT22;6733;51.044;3.746;2024-03-23T12:43:17;11.90;50.10
13328;DHT22;6733;51.044;3.746;2024-03-23T12:45:47;12.30;50.20
13328;DHT22;6733;51.044;3.746;2024-03-23T12:48:13;12.80;48.30
13328;DHT22;6733;51.044;3.746;2024-03-23T12:50:39;12.60;48.70
13328;DHT22;6733;51.044;3.746;2024-03-23T12:53:06;12.70;49.00
13328;DHT22;6733;51.044;3.746;2024-03-23T12:55:34;13.00;49.60
13328;DHT22;6733;51.044;3.746;2024-03-23T12:58:01;13.20;49.50
13328;DHT22;6733;51.044;3.746;2024-03-23T13:00:27;13.30;49.10
13328;DHT22;6733;51.044;3.746;2024-03-23T13:02:53;13.40;49.20
13328;DHT22;6733;51.044;3.746;2024-03-23T13:05:20;13.00;48.60
13328;DHT22;6733;51.044;3.746;2024-03-23T13:07:46;12.90;49.70
13328;DHT22;6733;51.044;3.746;2024-03-23T13:10:12;12.90;48.50
13328;DHT22;6733;51.044;3.746;2024-03-23T13:12:39;13.20;48.50
13328;DHT22;6733;51.044;3.746;2024-03-23T13:15:05;13.20;48.90
13328;DHT22;6733;51.044;3.746;2024-03-23T13:17:31;13.20;49.60
13328;DHT22;6733;51.044;3.746;2024-03-23T13:19:57;13.00;50.60
13328;DHT22;6733;51.044;3.746;2024-03-23T13:22:24;12.80;51.00
13328;DHT22;6733;51.044;3.746;2024-03-23T13:24:50;12.80;52.60
13328;DHT22;6733;51.044;3.746;2024-03-23T13:27:16;12.50;52.50
13328;DHT22;6733;51.044;3.746;2024-03-23T13:29:42;12.30;52.20
13328;DHT22;6733;51.044;3.746;2024-03-23T13:32:09;12.30;52.10
13328;DHT22;6733;51.044;3.746;2024-03-23T13:34:35;12.30;51.70
13328;DHT22;6733;51.044;3.746;2024-03-23T13:37:02;12.40;49.70
13328;DHT22;6733;51.044;3.746;2024-03-23T13:39:30;12.50;49.20
13328;DHT22;6733;51.044;3.746;2024-03-23T13:41:56;12.70;48.80
13328;DHT22;6733;51.044;3.746;2024-03-23T13:44:22;13.10;46.90
13328;DHT22;6733;51.044;3.746;2024-03-23T13:46:49;13.20;48.50
13328;DHT22;6733;51.044;3.746;2024-03-23T13:49:26;13.10;46.90
13328;DHT22;6733;51.044;3.746;2024-03-23T13:51:54;13.20;47.70
13328;DHT22;6733;51.044;3.746;2024-03-23T13:54:20;13.30;47.40
13328;DHT22;6733;51.044;3.746;2024-03-23T13:56:53;13.50;47.30
13328;DHT22;6733;51.044;3.746;2024-03-23T13:59:20;14.00;46.70
13328;DHT22;6733;51.044;3.746;2024-03-23T14:01:47;14.50;45.50
13328;DHT22;6733;51.044;3.746;2024-03-23T14:04:13;14.90;44.90
13328;DHT22;6733;51.044;3.746;2024-03-23T14:06:43;15.00;43.90
13328;DHT22;6733;51.044;3.746;2024-03-23T14:09:14;15.20;44.40
13328;DHT22;6733;51.044;3.746;2024-03-23T14:11:41;15.10;43.20
13328;DHT22;6733;51.044;3.746;2024-03-23T14:14:10;15.50;42.60
13328;DHT22;6733;51.044;3.746;2024-03-23T14:16:36;15.60;41.90
13328;DHT22;6733;51.044;3.746;2024-03-23T14:19:02;15.70;41.80
13328;DHT22;6733;51.044;3.746;2024-03-23T14:21:30;16.10;40.60
13328;DHT22;6733;51.044;3.746;2024-03-23T14:23:57;16.10;39.60
13328;DHT22;6733;51.044;3.746;2024-03-23T14:26:23;16.00;39.80
13328;DHT22;6733;51.044;3.746;2024-03-23T14:28:50;16.20;40.30
13328;DHT22;6733;51.044;3.746;2024-03-23T14:31:16;15.90;41.40
13328;DHT22;6733;51.044;3.746;2024-03-23T14:33:42;15.80;42.30
13328;DHT22;6733;51.044;3.746;2024-03-23T14:36:13;16.20;41.70
13328;DHT22;6733;51.044;3.746;2024-03-23T14:38:39;16.00;42.00
13328;DHT22;6733;51.044;3.746;2024-03-23T14:41:06;16.00;43.70
13328;DHT22;6733;51.044;3.746;2024-03-23T14:43:32;15.90;41.50
13328;DHT22;6733;51.044;3.746;2024-03-23T14:46:15;15.50;42.90
13328;DHT22;6733;51.044;3.746;2024-03-23T14:48:43;15.10;43.50
13328;DHT22;6733;51.044;3.746;2024-03-23T14:51:11;14.80;44.30
13328;DHT22;6733;51.044;3.746;2024-03-23T14:53:41;14.60;44.90
13328;DHT22;6733;51.044;3.746;2024-03-23T14:56:08;14.30;45.00
13328;DHT22;6733;51.044;3.746;2024-03-23T14:58:36;13.70;43.00
13328;DHT22;6733;51.044;3.746;2024-03-23T15:01:03;13.40;44.30
13328;DHT22;6733;51.044;3.746;2024-03-23T15:03:29;13.20;45.30
13328;DHT22;6733;51.044;3.746;2024-03-23T15:05:57;13.20;49.60
13328;DHT22;6733;51.044;3.746;2024-03-23T15:08:24;14.60;44.50
13328;DHT22;6733;51.044;3.746;2024-03-23T15:10:50;14.90;43.20
13328;DHT22;6733;51.044;3.746;2024-03-23T15:13:17;15.00;43.80
13328;DHT22;6733;51.044;3.746;2024-03-23T15:15:44;15.50;43.90
13328;DHT22;6733;51.044;3.746;2024-03-23T15:18:11;16.10;42.30
13328;DHT22;6733;51.044;3.746;2024-03-23T15:20:39;16.40;39.90
13328;DHT22;6733;51.044;3.746;2024-03-23T15:23:05;16.20;40.30
13328;DHT22;6733;51.044;3.746;2024-03-23T15:25:32;15.90;40.60
13328;DHT22;6733;51.044;3.746;2024-03-23T15:27:58;15.50;41.70
13328;DHT22;6733;51.044;3.746;2024-03-23T15:30:26;15.30;42.70
13328;DHT22;6733;51.044;3.746;2024-03-23T15:32:52;14.90;43.60
13328;DHT22;6733;51.044;3.746;2024-03-23T15:35:19;14.60;44.60
13328;DHT22;6733;51.044;3.746;2024-03-23T15:37:49;14.60;44.60
13328;DHT22;6733;51.044;3.746;2024-03-23T15:40:15;14.20;45.30
13328;DHT22;6733;51.044;3.746;2024-03-23T15:42:41;13.90;46.50
13328;DHT22;6733;51.044;3.746;2024-03-23T15:45:08;13.70;47.80
13328;DHT22;6733;51.044;3.746;2024-03-23T15:47:35;13.60;49.40
13328;DHT22;6733;51.044;3.746;2024-03-23T15:50:02;13.30;50.10
13328;DHT22;6733;51.044;3.746;2024-03-23T15:52:37;13.10;50.90
13328;DHT22;6733;51.044;3.746;2024-03-23T15:55:04;12.60;52.40
13328;DHT22;6733;51.044;3.746;2024-03-23T15:57:34;12.40;54.30
13328;DHT22;6733;51.044;3.746;2024-03-23T16:00:04;12.30;54.60
13328;DHT22;6733;51.044;3.746;2024-03-23T16:02:30;12.20;54.40
13328;DHT22;6733;51.044;3.746;2024-03-23T16:04:56;12.10;58.00
13328;DHT22;6733;51.044;3.746;2024-03-23T16:07:24;12.70;56.10
13328;DHT22;6733;51.044;3.746;2024-03-23T16:09:50;12.30;54.90
13328;DHT22;6733;51.044;3.746;2024-03-23T16:12:16;11.80;54.90
13328;DHT22;6733;51.044;3.746;2024-03-23T16:14:43;11.90;56.60
13328;DHT22;6733;51.044;3.746;2024-03-23T16:17:09;11.80;57.20
13328;DHT22;6733;51.044;3.746;2024-03-23T16:19:35;11.30;60.60
13328;DHT22;6733;51.044;3.746;2024-03-23T16:22:01;11.10;63.70
13328;DHT22;6733;51.044;3.746;2024-03-23T16:24:28;10.90;64.10
13328;DHT22;6733;51.044;3.746;2024-03-23T16:26:54;11.00;66.50
13328;DHT22;6733;51.044;3.746;2024-03-23T16:29:20;10.80;62.80
13328;DHT22;6733;51.044;3.746;2024-03-23T16:31:46;10.70;64.70
13328;DHT22;6733;51.044;3.746;2024-03-23T16:34:12;10.40;66.50
13328;DHT22;6733;51.044;3.746;2024-03-23T16:36:38;9.80;71.10
13328;DHT22;6733;51.044;3.746;2024-03-23T16:39:04;9.30;74.10
13328;DHT22;6733;51.044;3.746;2024-03-23T16:41:31;9.10;76.10
13328;DHT22;6733;51.044;3.746;2024-03-23T16:43:57;8.90;78.90
13328;DHT22;6733;51.044;3.746;2024-03-23T16:46:23;8.50;79.20
13328;DHT22;6733;51.044;3.746;2024-03-23T16:48:49;8.40;81.00
13328;DHT22;6733;51.044;3.746;2024-03-23T16:51:15;8.50;81.50
13328;DHT22;6733;51.044;3.746;2024-03-23T16:53:41;8.60;82.60
13328;DHT22;6733;51.044;3.746;2024-03-23T16:56:09;8.50;80.50
13328;DHT22;6733;51.044;3.746;2024-03-23T16:58:36;8.60;80.00
13328;DHT22;6733;51.044;3.746;2024-03-23T17:01:10;8.60;78.90
13328;DHT22;6733;51.044;3.746;2024-03-23T17:03:54;8.50;75.90
13328;DHT22;6733;51.044;3.746;2024-03-23T17:06:21;8.50;76.30
13328;DHT22;6733;51.044;3.746;2024-03-23T17:08:50;8.60;75.90
13328;DHT22;6733;51.044;3.746;2024-03-23T17:11:16;8.80;76.20
13328;DHT22;6733;51.044;3.746;2024-03-23T17:13:45;8.90;75.00